createdAt,value
2023-02-18T00:01:44.532Z,-2.34
2023-02-18T00:04:18.844Z,-2.33
2023-02-18T00:06:52.098Z,-2.31
2023-02-18T00:09:26.125Z,-2.30
2023-02-18T00:11:59.821Z,-2.33
2023-02-18T00:14:33.079Z,-2.32
2023-02-18T00:17:06.232Z,-2.31
2023-02-18T00:19:39.526Z,-2.33
2023-02-18T00:22:12.686Z,-2.31
2023-02-18T00:24:46.022Z,-2.33
2023-02-18T00:27:19.403Z,-2.33
2023-02-18T00:29:52.641Z,-2.34
2023-02-18T00:32:25.676Z,-2.34
2023-02-18T00:34:58.773Z,-2.34
2023-02-18T00:37:34.453Z,-2.33
2023-02-18T00:40:09.004Z,-2.33
2023-02-18T00:42:43.061Z,-2.33
2023-02-18T00:45:16.345Z,-2.35
2023-02-18T00:47:51.473Z,-2.35
2023-02-18T00:50:25.084Z,-2.38
2023-02-18T00:52:58.176Z,-2.42
2023-02-18T00:55:32.600Z,-2.43
2023-02-18T00:58:06.248Z,-2.44
2023-02-18T01:00:39.592Z,-2.39
2023-02-18T01:03:13.017Z,-2.38
2023-02-18T01:05:47.915Z,-2.39
2023-02-18T01:08:22.220Z,-2.39
2023-02-18T01:10:56.792Z,-2.39
2023-02-18T01:13:31.082Z,-2.39
2023-02-18T01:16:05.495Z,-2.36
2023-02-18T01:18:39.509Z,-2.38
2023-02-18T01:21:12.669Z,-2.41
2023-02-18T01:23:47.503Z,-2.41
2023-02-18T01:26:21.568Z,-2.40
2023-02-18T01:28:55.141Z,-2.42
2023-02-18T01:31:28.595Z,-2.43
2023-02-18T01:34:03.440Z,-2.46
2023-02-18T01:36:37.920Z,-2.50
2023-02-18T01:39:11.573Z,-2.54
2023-02-18T01:41:45.405Z,-2.58
2023-02-18T01:44:21.202Z,-2.57
2023-02-18T01:46:54.624Z,-2.57
2023-02-18T01:49:34.212Z,-2.57
2023-02-18T01:52:09.413Z,-2.58
2023-02-18T01:54:47.110Z,-2.56
2023-02-18T01:57:23.290Z,-2.52
2023-02-18T01:59:57.942Z,-2.53
2023-02-18T02:02:31.348Z,-2.57
2023-02-18T02:05:04.821Z,-2.59
2023-02-18T02:07:37.830Z,-2.59
2023-02-18T02:10:11.857Z,-2.61
2023-02-18T02:13:03.180Z,-2.63
2023-02-18T02:15:42.683Z,-2.61
2023-02-18T02:18:31.152Z,-2.63
2023-02-18T02:21:42.870Z,-2.68
2023-02-18T02:24:25.285Z,-2.67
2023-02-18T02:27:07.130Z,-2.66
2023-02-18T02:30:16.963Z,-2.64
2023-02-18T02:33:08.321Z,-2.61
2023-02-18T02:36:16.976Z,-2.60
2023-02-18T02:38:59.308Z,-2.59
2023-02-18T02:41:50.006Z,-2.58
2023-02-18T02:44:38.370Z,-2.58
2023-02-18T02:47:13.912Z,-2.55
2023-02-18T02:49:52.682Z,-2.53
2023-02-18T02:52:31.700Z,-2.52
2023-02-18T02:55:07.805Z,-2.52
2023-02-18T02:57:50.852Z,-2.51
2023-02-18T03:00:34.364Z,-2.50
2023-02-18T03:03:16.077Z,-2.50
2023-02-18T03:06:04.630Z,-2.52
2023-02-18T03:09:00.250Z,-2.52
2023-02-18T03:11:37.487Z,-2.50
2023-02-18T03:14:19.351Z,-2.48
2023-02-18T03:17:04.577Z,-2.46
2023-02-18T03:19:42.704Z,-2.44
2023-02-18T03:22:22.184Z,-2.44
2023-02-18T03:24:57.080Z,-2.43
2023-02-18T03:27:47.735Z,-2.44
2023-02-18T03:30:26.833Z,-2.43
2023-02-18T03:33:03.676Z,-2.41
2023-02-18T03:35:38.387Z,-2.41
2023-02-18T03:38:14.851Z,-2.46
2023-02-18T03:40:48.285Z,-2.47
2023-02-18T03:43:21.599Z,-2.46
2023-02-18T03:45:55.338Z,-2.44
2023-02-18T03:48:28.391Z,-2.44
2023-02-18T03:51:01.509Z,-2.42
2023-02-18T03:53:36.042Z,-2.45
2023-02-18T03:56:09.789Z,-2.43
2023-02-18T03:58:43.614Z,-2.40
2023-02-18T04:01:17.106Z,-2.39
2023-02-18T04:03:50.637Z,-2.40
2023-02-18T04:06:25.501Z,-2.43
2023-02-18T04:08:58.720Z,-2.43
2023-02-18T04:11:31.728Z,-2.43
2023-02-18T04:14:05.454Z,-2.42
2023-02-18T04:16:39.153Z,-2.42
2023-02-18T04:19:12.847Z,-2.47
2023-02-18T04:21:45.902Z,-2.48
2023-02-18T04:24:18.978Z,-2.46
2023-02-18T04:26:52.479Z,-2.47
2023-02-18T04:29:25.516Z,-2.49
2023-02-18T04:31:58.809Z,-2.53
2023-02-18T04:34:32.303Z,-2.53
2023-02-18T04:37:05.352Z,-2.51
2023-02-18T04:39:38.665Z,-2.52
2023-02-18T04:42:11.724Z,-2.55
2023-02-18T04:44:47.332Z,-2.60
2023-02-18T04:47:20.291Z,-2.66
2023-02-18T04:49:53.293Z,-2.69
2023-02-18T04:52:26.561Z,-2.68
2023-02-18T04:55:00.111Z,-2.73
2023-02-18T04:57:33.856Z,-2.74
2023-02-18T05:00:08.939Z,-2.76
2023-02-18T05:02:42.247Z,-2.78
2023-02-18T05:05:15.978Z,-2.78
2023-02-18T05:07:49.986Z,-2.76
2023-02-18T05:10:24.425Z,-2.73
2023-02-18T05:12:58.270Z,-2.71
2023-02-18T05:15:31.562Z,-2.66
2023-02-18T05:18:05.648Z,-2.65
2023-02-18T05:20:38.723Z,-2.62
2023-02-18T05:23:11.815Z,-2.60
2023-02-18T05:25:45.597Z,-2.61
2023-02-18T05:28:19.212Z,-2.59
2023-02-18T05:30:52.429Z,-2.57
2023-02-18T05:33:25.575Z,-2.53
2023-02-18T05:35:58.992Z,-2.49
2023-02-18T05:38:32.193Z,-2.46
2023-02-18T05:41:06.566Z,-2.46
2023-02-18T05:43:57.358Z,-2.52
2023-02-18T05:46:31.032Z,-2.49
2023-02-18T05:49:04.514Z,-2.41
2023-02-18T05:51:37.537Z,-2.34
2023-02-18T05:54:10.903Z,-2.34
2023-02-18T05:56:44.040Z,-2.36
2023-02-18T05:59:17.343Z,-2.44
2023-02-18T06:01:51.391Z,-2.52
2023-02-18T06:04:24.511Z,-2.55
2023-02-18T06:06:59.349Z,-2.58
2023-02-18T06:09:32.606Z,-2.58
2023-02-18T06:12:06.814Z,-2.52
2023-02-18T06:14:42.172Z,-2.49
2023-02-18T06:17:16.166Z,-2.44
2023-02-18T06:19:49.951Z,-2.39
2023-02-18T06:22:23.018Z,-2.34
2023-02-18T06:24:56.448Z,-2.26
2023-02-18T06:27:29.799Z,-2.21
2023-02-18T06:30:03.930Z,-2.13
2023-02-18T06:32:37.366Z,-2.09
2023-02-18T06:35:10.949Z,-2.09
2023-02-18T06:37:46.176Z,-2.12
2023-02-18T06:40:19.280Z,-2.12
2023-02-18T06:42:52.328Z,-2.07
2023-02-18T06:45:25.428Z,-1.98
2023-02-18T06:47:58.851Z,-1.89
2023-02-18T06:50:31.859Z,-1.83
2023-02-18T06:53:05.200Z,-1.77
2023-02-18T06:55:38.877Z,-1.69
2023-02-18T06:58:13.367Z,-1.59
2023-02-18T07:00:46.338Z,-1.50
2023-02-18T07:03:20.646Z,-1.47
2023-02-18T07:05:53.951Z,-1.43
2023-02-18T07:08:27.747Z,-1.43
2023-02-18T07:11:00.820Z,-1.43
2023-02-18T07:13:35.953Z,-1.36
2023-02-18T07:16:09.540Z,-1.30
2023-02-18T07:18:43.765Z,-1.28
2023-02-18T07:21:17.656Z,-1.22
2023-02-18T07:23:50.924Z,-1.12
2023-02-18T07:26:24.103Z,-1.09
2023-02-18T07:28:57.189Z,-1.08
2023-02-18T07:31:30.469Z,-1.05
2023-02-18T07:34:03.693Z,-1.10
2023-02-18T07:36:37.756Z,-1.07
2023-02-18T07:39:10.890Z,-0.95
2023-02-18T07:41:44.129Z,-0.84
2023-02-18T07:44:18.749Z,-0.77
2023-02-18T07:46:51.820Z,-0.77
2023-02-18T07:49:25.222Z,-0.82
2023-02-18T07:51:59.248Z,-0.91
2023-02-18T07:54:32.868Z,-0.86
2023-02-18T07:57:06.650Z,-0.77
2023-02-18T07:59:40.211Z,-0.67
2023-02-18T08:02:19.442Z,-0.59
2023-02-18T08:04:53.061Z,-0.58
2023-02-18T08:07:26.277Z,-0.53
2023-02-18T08:09:59.300Z,-0.48
2023-02-18T08:12:32.358Z,-0.56
2023-02-18T08:15:06.118Z,-0.67
2023-02-18T08:17:39.787Z,-0.67
2023-02-18T08:20:13.786Z,-0.60
2023-02-18T08:22:47.270Z,-0.63
2023-02-18T08:25:29.344Z,-0.60
2023-02-18T08:27:56.163Z,-0.59
2023-02-18T08:30:30.164Z,-0.55
2023-02-18T08:33:03.686Z,-0.55
2023-02-18T08:35:38.140Z,-0.48
2023-02-18T08:38:11.255Z,-0.35
2023-02-18T08:40:44.320Z,-0.31
2023-02-18T08:43:18.217Z,-0.25
2023-02-18T08:45:51.426Z,-0.20
2023-02-18T08:48:24.619Z,-0.14
2023-02-18T08:50:58.238Z,-0.02
2023-02-18T08:53:31.167Z,0.11
2023-02-18T08:56:09.931Z,0.24
2023-02-18T08:58:43.564Z,0.34
2023-02-18T09:01:16.973Z,0.44
2023-02-18T09:03:50.300Z,0.38
2023-02-18T09:06:23.656Z,0.34
2023-02-18T09:08:59.032Z,0.28
2023-02-18T09:11:32.887Z,0.31
2023-02-18T09:14:06.643Z,0.42
2023-02-18T09:16:41.206Z,0.54
2023-02-18T09:19:14.266Z,0.55
2023-02-18T09:21:47.339Z,0.52
2023-02-18T09:24:21.353Z,0.45
2023-02-18T09:26:55.789Z,0.40
2023-02-18T09:29:28.908Z,0.32
2023-02-18T09:32:02.950Z,0.33
2023-02-18T09:34:37.446Z,0.37
2023-02-18T09:37:16.431Z,0.35
2023-02-18T09:39:49.603Z,0.32
2023-02-18T09:42:23.821Z,0.39
2023-02-18T09:44:59.723Z,0.48
2023-02-18T09:47:43.729Z,0.59
2023-02-18T09:50:19.871Z,0.62
2023-02-18T09:52:53.039Z,0.68
2023-02-18T09:55:36.692Z,0.62
2023-02-18T09:58:18.072Z,0.60
2023-02-18T10:01:13.724Z,0.56
2023-02-18T10:03:47.856Z,0.51
2023-02-18T10:06:26.594Z,0.47
2023-02-18T10:09:01.999Z,0.44
2023-02-18T10:11:44.307Z,0.50
2023-02-18T10:14:17.314Z,0.44
2023-02-18T10:16:50.744Z,0.40
2023-02-18T10:19:32.735Z,0.34
2023-02-18T10:22:07.406Z,0.30
2023-02-18T10:24:43.819Z,0.28
2023-02-18T10:27:29.728Z,0.24
2023-02-18T10:30:05.979Z,0.31
2023-02-18T10:32:41.170Z,0.37
2023-02-18T10:35:34.922Z,0.31
2023-02-18T10:38:37.165Z,0.29
2023-02-18T10:41:19.228Z,0.32
2023-02-18T10:43:55.650Z,0.38
2023-02-18T10:46:32.141Z,0.49
2023-02-18T10:49:34.352Z,0.48
2023-02-18T10:52:07.915Z,0.47
2023-02-18T10:54:56.595Z,0.51
2023-02-18T10:57:29.847Z,0.57
2023-02-18T11:00:12.224Z,0.65
2023-02-18T11:02:45.490Z,0.69
2023-02-18T11:05:24.610Z,0.71
2023-02-18T11:07:59.235Z,0.73
2023-02-18T11:10:35.096Z,0.78
2023-02-18T11:13:09.567Z,0.80
2023-02-18T11:15:46.171Z,0.77
2023-02-18T11:18:28.825Z,0.82
2023-02-18T11:21:09.214Z,0.86
2023-02-18T11:23:50.914Z,0.90
2023-02-18T11:26:31.291Z,0.92
2023-02-18T11:29:24.211Z,0.95
2023-02-18T11:31:57.669Z,0.95
2023-02-18T11:34:32.875Z,0.88
2023-02-18T11:37:12.345Z,0.78
2023-02-18T11:39:47.119Z,0.75
2023-02-18T11:42:22.483Z,0.77
2023-02-18T11:45:00.572Z,0.72
2023-02-18T11:47:38.559Z,0.68
2023-02-18T11:50:17.825Z,0.62
2023-02-18T11:52:52.427Z,0.58
2023-02-18T11:55:31.230Z,0.57
2023-02-18T11:58:07.314Z,0.59
2023-02-18T12:00:45.477Z,0.56
2023-02-18T12:03:40.282Z,0.55
2023-02-18T12:06:19.729Z,0.52
2023-02-18T12:09:28.184Z,0.54
2023-02-18T12:12:16.002Z,0.54
2023-02-18T12:14:52.076Z,0.53
2023-02-18T12:17:51.735Z,0.56
2023-02-18T12:20:48.710Z,0.61
2023-02-18T12:23:31.469Z,0.64
2023-02-18T12:26:26.283Z,0.68
2023-02-18T12:29:36.154Z,0.70
2023-02-18T12:32:33.538Z,0.68
2023-02-18T12:35:21.675Z,0.75
2023-02-18T12:38:09.850Z,0.84
2023-02-18T12:40:55.037Z,0.90
2023-02-18T12:43:50.007Z,0.92
2023-02-18T12:46:41.371Z,0.92
2023-02-18T12:49:50.795Z,0.96
2023-02-18T12:53:00.430Z,0.97
2023-02-18T12:55:45.313Z,0.98
2023-02-18T12:58:36.273Z,0.98
2023-02-18T13:01:24.751Z,0.97
2023-02-18T13:04:29.409Z,0.95
2023-02-18T13:07:24.175Z,0.94
2023-02-18T13:10:15.209Z,0.95
2023-02-18T13:13:03.632Z,1.00
2023-02-18T13:15:51.174Z,1.02
2023-02-18T13:18:28.002Z,1.02
2023-02-18T13:21:05.229Z,1.03
2023-02-18T13:23:43.064Z,1.06
2023-02-18T13:26:16.657Z,1.11
2023-02-18T13:28:58.994Z,1.14
2023-02-18T13:32:09.967Z,1.13
2023-02-18T13:35:00.217Z,1.07
2023-02-18T13:37:36.390Z,1.02
2023-02-18T13:40:12.647Z,1.05
2023-02-18T13:42:45.817Z,1.04
2023-02-18T13:45:27.442Z,1.06
2023-02-18T13:48:01.264Z,1.05
2023-02-18T13:50:43.474Z,1.04
2023-02-18T13:53:19.195Z,1.04
2023-02-18T13:56:03.013Z,1.06
2023-02-18T13:58:42.153Z,1.07
2023-02-18T14:01:18.492Z,1.07
2023-02-18T14:03:57.371Z,1.10
2023-02-18T14:06:32.800Z,1.11
2023-02-18T14:09:19.093Z,1.12
2023-02-18T14:11:58.213Z,1.15
2023-02-18T14:14:36.257Z,1.16
2023-02-18T14:17:22.650Z,1.15
2023-02-18T14:20:04.676Z,1.14
2023-02-18T14:22:49.382Z,1.14
2023-02-18T14:25:25.725Z,1.14
2023-02-18T14:28:00.279Z,1.15
2023-02-18T14:30:37.416Z,1.17
2023-02-18T14:33:13.669Z,1.17
2023-02-18T14:35:56.159Z,1.18
2023-02-18T14:38:36.385Z,1.20
2023-02-18T14:41:30.601Z,1.22
2023-02-18T14:44:12.699Z,1.25
2023-02-18T14:47:01.209Z,1.26
2023-02-18T14:49:51.360Z,1.30
2023-02-18T14:52:39.628Z,1.32
2023-02-18T14:55:30.184Z,1.34
2023-02-18T14:58:05.839Z,1.36
2023-02-18T15:00:43.011Z,1.38
2023-02-18T15:03:17.905Z,1.43
2023-02-18T15:05:52.455Z,1.49
2023-02-18T15:08:27.266Z,1.53
2023-02-18T15:11:06.107Z,1.57
2023-02-18T15:13:44.577Z,1.59
2023-02-18T15:16:32.720Z,1.59
2023-02-18T15:19:13.470Z,1.59
2023-02-18T15:21:50.507Z,1.60
2023-02-18T15:24:32.755Z,1.60
2023-02-18T15:27:20.240Z,1.61
2023-02-18T15:29:55.780Z,1.63
2023-02-18T15:32:30.088Z,1.67
2023-02-18T15:35:04.750Z,1.71
2023-02-18T15:37:37.818Z,1.76
2023-02-18T15:40:18.102Z,1.81
2023-02-18T15:42:52.614Z,1.86
2023-02-18T15:45:29.075Z,1.89
2023-02-18T15:48:02.393Z,1.93
2023-02-18T15:50:41.163Z,1.97
2023-02-18T15:53:16.538Z,1.99
2023-02-18T15:55:53.732Z,2.00
2023-02-18T15:58:30.044Z,2.01
2023-02-18T16:01:08.060Z,2.00
2023-02-18T16:03:46.909Z,2.00
2023-02-18T16:06:27.047Z,2.00
2023-02-18T16:09:09.403Z,2.01
2023-02-18T16:11:44.364Z,2.02
2023-02-18T16:14:36.464Z,2.00
2023-02-18T16:17:29.079Z,2.02
2023-02-18T16:20:05.982Z,2.04
2023-02-18T16:22:42.345Z,2.04
2023-02-18T16:25:27.263Z,2.04
2023-02-18T16:28:06.334Z,2.06
2023-02-18T16:30:40.885Z,2.06
2023-02-18T16:33:13.889Z,2.06
2023-02-18T16:35:50.298Z,2.07
2023-02-18T16:38:23.872Z,2.08
2023-02-18T16:40:56.984Z,2.07
2023-02-18T16:43:31.848Z,2.08
2023-02-18T16:46:12.086Z,2.08
2023-02-18T16:48:48.104Z,2.10
2023-02-18T16:51:27.877Z,2.11
2023-02-18T16:54:00.932Z,2.12
2023-02-18T16:56:35.934Z,2.11
2023-02-18T16:59:09.029Z,2.12
2023-02-18T17:01:46.471Z,2.13
2023-02-18T17:04:20.546Z,2.12
2023-02-18T17:06:54.819Z,2.11
2023-02-18T17:09:28.413Z,2.11
2023-02-18T17:12:03.510Z,2.12
2023-02-18T17:14:37.092Z,2.12
2023-02-18T17:17:13.844Z,2.13
2023-02-18T17:19:46.871Z,2.13
2023-02-18T17:22:19.888Z,2.14
2023-02-18T17:24:53.379Z,2.13
2023-02-18T17:27:26.589Z,2.13
2023-02-18T17:30:00.101Z,2.13
2023-02-18T17:32:34.019Z,2.12
2023-02-18T17:35:07.902Z,2.12
2023-02-18T17:37:41.021Z,2.10
2023-02-18T17:40:19.906Z,2.11
2023-02-18T17:42:54.161Z,2.10
2023-02-18T17:45:38.521Z,2.08
2023-02-18T17:48:11.645Z,2.06
2023-02-18T17:50:44.858Z,2.07
2023-02-18T17:53:19.315Z,2.03
2023-02-18T17:55:52.591Z,2.05
2023-02-18T17:58:25.631Z,2.04
2023-02-18T18:00:59.607Z,2.04
2023-02-18T18:03:33.257Z,2.05
2023-02-18T18:06:08.037Z,2.04
2023-02-18T18:08:41.851Z,2.05
2023-02-18T18:11:20.554Z,2.05
2023-02-18T18:13:54.079Z,2.04
2023-02-18T18:16:27.497Z,2.03
2023-02-18T18:19:00.860Z,2.03
2023-02-18T18:21:36.037Z,2.03
2023-02-18T18:24:13.196Z,2.03
2023-02-18T18:26:47.000Z,2.01
2023-02-18T18:29:20.546Z,1.98
2023-02-18T18:31:54.285Z,1.96
2023-02-18T18:34:27.286Z,1.95
2023-02-18T18:37:00.194Z,1.96
2023-02-18T18:39:33.183Z,1.96
2023-02-18T18:42:06.948Z,1.97
2023-02-18T18:44:41.810Z,1.98
2023-02-18T18:47:14.707Z,2.02
2023-02-18T18:49:48.327Z,2.03
2023-02-18T18:52:21.776Z,2.03
2023-02-18T18:54:55.425Z,2.01
2023-02-18T18:57:28.647Z,2.00
2023-02-18T19:00:01.700Z,2.01
2023-02-18T19:02:35.045Z,2.02
2023-02-18T19:05:10.262Z,2.02
2023-02-18T19:07:43.867Z,2.01
2023-02-18T19:10:18.126Z,2.01
2023-02-18T19:12:51.234Z,1.98
2023-02-18T19:15:24.499Z,1.95
2023-02-18T19:17:58.050Z,1.96
2023-02-18T19:20:33.062Z,1.97
2023-02-18T19:23:05.822Z,1.98
2023-02-18T19:25:39.868Z,1.97
2023-02-18T19:28:14.002Z,1.97
2023-02-18T19:30:47.540Z,1.95
2023-02-18T19:33:20.336Z,1.94
2023-02-18T19:35:53.007Z,1.93
2023-02-18T19:38:26.583Z,1.93
2023-02-18T19:40:59.505Z,1.92
2023-02-18T19:43:32.122Z,1.91
2023-02-18T19:46:13.569Z,1.89
2023-02-18T19:48:52.439Z,1.88
2023-02-18T19:51:26.342Z,1.87
2023-02-18T19:53:59.168Z,1.87
2023-02-18T19:56:33.123Z,1.88
2023-02-18T19:59:05.931Z,1.89
2023-02-18T20:01:39.431Z,1.88
2023-02-18T20:04:12.227Z,1.86
2023-02-18T20:06:45.014Z,1.84
2023-02-18T20:09:17.615Z,1.81
2023-02-18T20:11:51.574Z,1.79
2023-02-18T20:14:25.973Z,1.77
2023-02-18T20:16:59.403Z,1.77
2023-02-18T20:19:32.724Z,1.77
2023-02-18T20:22:07.776Z,1.76
2023-02-18T20:24:41.922Z,1.75
2023-02-18T20:27:14.876Z,1.75
2023-02-18T20:29:47.553Z,1.74
2023-02-18T20:32:20.366Z,1.75
2023-02-18T20:34:53.826Z,1.74
2023-02-18T20:37:26.733Z,1.73
2023-02-18T20:39:59.869Z,1.72
2023-02-18T20:42:34.130Z,1.71
2023-02-18T20:45:06.833Z,1.70
2023-02-18T20:47:40.373Z,1.69
2023-02-18T20:50:16.172Z,1.67
2023-02-18T20:52:49.772Z,1.69
2023-02-18T20:55:22.690Z,1.71
2023-02-18T20:57:56.006Z,1.69
2023-02-18T21:00:28.999Z,1.69
2023-02-18T21:03:02.039Z,1.69
2023-02-18T21:05:34.804Z,1.68
2023-02-18T21:08:09.498Z,1.68
2023-02-18T21:10:42.791Z,1.68
2023-02-18T21:13:15.687Z,1.69
2023-02-18T21:15:48.927Z,1.69
2023-02-18T21:18:22.205Z,1.67
2023-02-18T21:20:54.963Z,1.68
2023-02-18T21:23:28.969Z,1.68
2023-02-18T21:26:09.835Z,1.68
2023-02-18T21:28:42.636Z,1.67
2023-02-18T21:31:24.103Z,1.66
2023-02-18T21:33:56.742Z,1.64
2023-02-18T21:36:30.560Z,1.61
2023-02-18T21:39:05.837Z,1.61
2023-02-18T21:41:41.405Z,1.61
2023-02-18T21:44:14.288Z,1.61
2023-02-18T21:46:46.904Z,1.59
2023-02-18T21:49:19.775Z,1.57
2023-02-18T21:52:00.362Z,1.57
2023-02-18T21:54:37.608Z,1.57
2023-02-18T21:57:14.050Z,1.56
2023-02-18T21:59:47.479Z,1.55
2023-02-18T22:02:25.581Z,1.53
2023-02-18T22:04:58.843Z,1.53
2023-02-18T22:07:31.416Z,1.52
2023-02-18T22:10:04.089Z,1.52
2023-02-18T22:12:37.386Z,1.52
2023-02-18T22:15:10.475Z,1.54
2023-02-18T22:17:43.125Z,1.54
2023-02-18T22:20:15.856Z,1.53
2023-02-18T22:22:49.199Z,1.53
2023-02-18T22:25:21.974Z,1.51
2023-02-18T22:27:54.635Z,1.51
2023-02-18T22:30:27.660Z,1.49
2023-02-18T22:33:01.020Z,1.47
2023-02-18T22:35:35.311Z,1.47
2023-02-18T22:38:08.106Z,1.48
2023-02-18T22:40:41.137Z,1.47
2023-02-18T22:43:14.065Z,1.48
2023-02-18T22:45:46.705Z,1.46
2023-02-18T22:48:20.177Z,1.46
2023-02-18T22:50:53.044Z,1.45
2023-02-18T22:53:26.137Z,1.43
2023-02-18T22:56:04.141Z,1.43
2023-02-18T22:58:37.327Z,1.46
2023-02-18T23:01:25.142Z,1.47
2023-02-18T23:04:00.129Z,1.49
2023-02-18T23:06:33.435Z,1.49
2023-02-18T23:09:07.917Z,1.49
2023-02-18T23:11:40.885Z,1.48
2023-02-18T23:14:19.432Z,1.48
2023-02-18T23:17:17.393Z,1.49
2023-02-18T23:19:52.297Z,1.49
2023-02-18T23:22:32.676Z,1.48
2023-02-18T23:25:05.754Z,1.50
2023-02-18T23:27:38.674Z,1.50
2023-02-18T23:30:12.876Z,1.52
2023-02-18T23:32:45.832Z,1.52
2023-02-18T23:35:18.488Z,1.50
2023-02-18T23:38:03.746Z,1.50
2023-02-18T23:40:36.517Z,1.51
2023-02-18T23:43:09.079Z,1.49
2023-02-18T23:45:42.303Z,1.49
2023-02-18T23:48:17.335Z,1.49
2023-02-18T23:50:50.109Z,1.49
2023-02-18T23:53:26.516Z,1.49
2023-02-18T23:56:17.427Z,1.49
2023-02-18T23:58:52.931Z,1.49
